Time;durP1;ratioP1;P1;durP2;ratioP2;P2;SDS_P1;SDS_P2;PMS_P1;PMS_P2;Temp;Humidity;BMP_temperature;BMP_pressure;BME280_temperature;BME280_humidity;BME280_pressure;Samples;Min_cycle;Max_cycle;Signal;HPM_P1;HPM_P2
2023/01/27 00:01:50;;;;;;;23.15;10.00;;;23.90;67.70;;;;;;4137939;28;20503;-82
2023/01/27 00:04:12;;;;;;;17.42;10.18;;;24.00;67.90;;;;;;4136743;28;20105;-78
2023/01/27 00:06:35;;;;;;;21.55;9.82;;;24.10;68.00;;;;;;4133586;28;20046;-77
2023/01/27 00:08:57;;;;;;;21.40;9.27;;;24.20;67.90;;;;;;4137383;28;20388;-77
2023/01/27 00:14:03;;;;;;;24.42;10.68;;;24.40;67.90;;;;;;4135846;28;20041;-79
2023/01/27 00:16:26;;;;;;;15.57;9.15;;;24.40;67.80;;;;;;4139263;28;20455;-75
2023/01/27 00:18:48;;;;;;;14.80;9.50;;;24.50;68.00;;;;;;4139538;28;20042;-77
2023/01/27 00:26:39;;;;;;;15.15;9.57;;;24.80;68.00;;;;;;4133337;28;20038;-76
2023/01/27 00:29:01;;;;;;;14.20;9.88;;;24.80;68.10;;;;;;4137852;28;20160;-76
2023/01/27 00:34:08;;;;;;;13.20;9.32;;;24.90;68.20;;;;;;4135258;28;20080;-80
2023/01/27 00:36:37;;;;;;;11.45;9.75;;;25.00;68.30;;;;;;4139755;28;20393;-76
2023/01/27 00:39:11;;;;;;;12.15;10.18;;;25.00;68.40;;;;;;4123290;28;20054;-72
2023/01/27 00:41:34;;;;;;;19.77;10.60;;;25.00;68.50;;;;;;4129425;28;20393;-71
2023/01/27 00:43:57;;;;;;;15.38;11.40;;;25.10;68.90;;;;;;4139228;28;20049;-74
2023/01/27 00:46:22;;;;;;;14.10;11.02;;;25.10;69.10;;;;;;4135261;28;20038;-70
2023/01/27 00:48:45;;;;;;;14.90;10.90;;;25.10;69.20;;;;;;4137142;28;20037;-72
2023/01/27 00:51:07;;;;;;;14.57;11.23;;;25.20;69.20;;;;;;4137881;28;20040;-71
2023/01/27 00:53:30;;;;;;;13.60;10.25;;;25.30;69.30;;;;;;4138059;28;20049;-74
2023/01/27 00:55:52;;;;;;;14.63;11.48;;;25.20;69.10;;;;;;4129549;28;20045;-76
2023/01/27 00:58:15;;;;;;;16.05;11.18;;;25.30;69.20;;;;;;4140597;28;20468;-74
2023/01/27 01:00:40;;;;;;;15.40;11.23;;;25.40;69.10;;;;;;4135680;28;20030;-74
2023/01/27 01:03:03;;;;;;;11.93;10.13;;;25.50;69.00;;;;;;4135579;28;20444;-76
2023/01/27 01:05:25;;;;;;;13.82;10.85;;;25.50;68.80;;;;;;4133573;28;20377;-74
2023/01/27 01:07:47;;;;;;;13.48;10.80;;;25.60;68.70;;;;;;4136254;28;20117;-73
2023/01/27 01:10:11;;;;;;;15.80;11.75;;;25.70;68.50;;;;;;4139155;28;20100;-76
2023/01/27 01:12:33;;;;;;;15.07;11.38;;;25.70;68.40;;;;;;4136432;28;20053;-77
2023/01/27 01:14:56;;;;;;;13.57;10.32;;;25.70;68.30;;;;;;4136973;28;21410;-74
2023/01/27 01:17:18;;;;;;;14.23;11.43;;;25.80;68.20;;;;;;4137058;28;20038;-75
2023/01/27 01:19:43;;;;;;;13.65;11.15;;;25.80;68.10;;;;;;4124683;28;20045;-75
2023/01/27 01:22:06;;;;;;;16.40;11.15;;;25.80;68.10;;;;;;4134186;28;20208;-79
2023/01/27 01:24:28;;;;;;;17.85;10.73;;;25.90;67.90;;;;;;4137158;28;20124;-81
2023/01/27 01:26:51;;;;;;;18.83;10.45;;;25.90;68.00;;;;;;4137048;28;20038;-79
2023/01/27 01:29:13;;;;;;;21.63;10.88;;;25.90;67.80;;;;;;4137926;28;20088;-88
2023/01/27 01:31:35;;;;;;;14.82;8.80;;;25.90;67.80;;;;;;4138854;28;20072;-73
2023/01/27 01:34:01;;;;;;;11.35;8.80;;;26.00;67.80;;;;;;4137393;28;20092;-73
2023/01/27 01:36:23;;;;;;;11.77;8.55;;;26.00;67.80;;;;;;4133753;28;20042;-73
2023/01/27 01:38:46;;;;;;;15.07;9.05;;;26.10;67.80;;;;;;4144651;28;20264;-77
2023/01/27 01:41:13;;;;;;;10.18;8.50;;;26.10;67.70;;;;;;4131842;28;20042;-74
2023/01/27 01:43:36;;;;;;;11.45;9.00;;;26.10;68.30;;;;;;4131930;28;20048;-74
2023/01/27 01:46:00;;;;;;;11.20;8.27;;;26.20;67.70;;;;;;4137131;28;20160;-72
2023/01/27 01:48:28;;;;;;;11.68;8.35;;;26.20;67.70;;;;;;4133502;28;20095;-74
2023/01/27 01:51:09;;;;;;;11.00;8.18;;;26.20;67.60;;;;;;4140704;28;20175;-76
2023/01/27 01:53:49;;;;;;;12.38;9.07;;;26.30;67.40;;;;;;4135894;28;20046;-74
2023/01/27 01:56:16;;;;;;;12.45;8.85;;;26.30;67.10;;;;;;4137352;28;20045;-76
2023/01/27 01:58:39;;;;;;;12.65;9.07;;;26.30;67.60;;;;;;4140283;28;20053;-75
2023/01/27 02:01:03;;;;;;;11.85;9.02;;;26.30;66.80;;;;;;4133695;28;20081;-75
2023/01/27 02:03:32;;;;;;;12.57;8.48;;;26.40;66.70;;;;;;4142955;28;20053;-72
2023/01/27 02:05:55;;;;;;;13.13;8.52;;;26.40;67.20;;;;;;4139192;28;20657;-82
2023/01/27 02:08:28;;;;;;;10.93;9.20;;;26.50;67.30;;;;;;4144136;28;20121;-82
2023/01/27 02:10:57;;;;;;;13.45;9.00;;;26.50;67.30;;;;;;4142435;28;20041;-78
2023/01/27 02:13:21;;;;;;;10.35;8.35;;;26.60;67.30;;;;;;4139490;28;20096;-81
2023/01/27 02:15:55;;;;;;;10.32;8.32;;;26.70;67.30;;;;;;4141785;28;20037;-80
2023/01/27 02:18:16;;;;;;;;;;;26.80;67.20;;;;;;4139138;28;20546;-81
2023/01/27 02:20:50;;;;;;;11.10;7.43;;;26.90;67.20;;;;;;4141086;28;19917;-81
2023/01/27 02:23:34;;;;;;;8.63;7.57;;;26.90;67.00;;;;;;4135226;28;20953;-83
2023/01/27 02:26:08;;;;;;;10.35;6.90;;;27.00;67.00;;;;;;4133597;28;20084;-84
2023/01/27 02:28:34;;;;;;;9.82;6.97;;;27.00;66.80;;;;;;4134676;28;20476;-74
2023/01/27 02:31:17;;;;;;;8.52;6.47;;;27.10;66.70;;;;;;4135718;28;20069;-76
2023/01/27 02:33:39;;;;;;;7.47;5.40;;;27.10;66.50;;;;;;4133343;28;20038;-74
2023/01/27 02:36:16;;;;;;;7.22;5.10;;;27.10;66.40;;;;;;4138527;28;20046;-85
2023/01/27 02:38:47;;;;;;;6.95;5.20;;;27.10;66.50;;;;;;4135676;28;20053;-80
2023/01/27 02:41:18;;;;;;;7.03;4.93;;;27.10;66.70;;;;;;4134669;28;20042;-79
2023/01/27 02:43:41;;;;;;;7.20;5.05;;;27.20;66.90;;;;;;4134717;28;20490;-81
2023/01/27 02:46:03;;;;;;;6.38;5.05;;;27.20;66.90;;;;;;4137052;28;20463;-77
2023/01/27 02:48:59;;;;;;;5.28;4.40;;;27.20;66.90;;;;;;4137448;28;20081;-80
2023/01/27 02:51:21;;;;;;;5.60;4.20;;;27.30;66.90;;;;;;4135433;28;20038;-83
2023/01/27 02:53:53;;;;;;;5.32;3.85;;;27.30;66.70;;;;;;4136145;28;20127;-80
2023/01/27 02:56:25;;;;;;;5.38;4.10;;;27.40;66.60;;;;;;4131319;28;20042;-86
2023/01/27 02:58:47;;;;;;;6.80;4.00;;;27.40;66.50;;;;;;4132064;28;20041;-78
2023/01/27 03:01:40;;;;;;;5.05;3.47;;;27.50;66.70;;;;;;4136125;28;20046;-82
2023/01/27 03:04:17;;;;;;;6.18;3.45;;;27.60;66.50;;;;;;4135941;28;20069;-77
2023/01/27 03:06:40;;;;;;;4.30;3.10;;;27.60;67.00;;;;;;4134920;28;20507;-73
2023/01/27 03:09:03;;;;;;;3.97;2.95;;;27.70;66.20;;;;;;4133269;28;20619;-76
2023/01/27 03:14:12;;;;;;;6.05;2.92;;;27.80;66.40;;;;;;4136732;28;20092;-74
2023/01/27 03:19:52;;;;;;;4.35;2.60;;;27.90;66.10;;;;;;4121422;28;20168;-73
2023/01/27 03:22:14;;;;;;;4.07;2.53;;;27.90;66.10;;;;;;4138131;28;20034;-78
2023/01/27 03:24:39;;;;;;;3.95;2.75;;;28.00;66.10;;;;;;4139136;28;20575;-81
2023/01/27 03:27:02;;;;;;;3.28;2.40;;;28.00;65.90;;;;;;4139078;28;20095;-82
2023/01/27 03:32:33;;;;;;;4.67;2.50;;;28.10;66.10;;;;;;4139661;28;20124;-79
2023/01/27 03:35:02;;;;;;;3.17;2.13;;;28.10;65.90;;;;;;4141518;28;20936;-81
2023/01/27 03:48:12;;;;;;;2.40;1.80;;;28.30;65.70;;;;;;4138848;28;20041;-77
2023/01/27 03:50:42;;;;;;;2.72;1.60;;;28.30;65.60;;;;;;4142632;28;20104;-85
2023/01/27 03:53:24;;;;;;;2.80;1.55;;;28.40;65.20;;;;;;4140785;28;20065;-81
2023/01/27 03:55:59;;;;;;;3.13;1.80;;;28.40;65.60;;;;;;4142637;28;20069;-78
2023/01/27 03:58:30;;;;;;;3.08;1.67;;;28.40;65.50;;;;;;4149107;28;20551;-85
2023/01/27 04:00:58;;;;;;;3.13;1.48;;;28.50;65.50;;;;;;4141167;28;20114;-78
2023/01/27 04:06:57;;;;;;;3.40;1.60;;;28.50;65.40;;;;;;4143055;28;20042;-77
2023/01/27 04:09:32;;;;;;;2.35;1.55;;;28.50;65.00;;;;;;4134894;28;20065;-76
2023/01/27 04:12:09;;;;;;;3.15;1.40;;;28.60;65.20;;;;;;4135393;28;20037;-79
2023/01/27 04:14:46;;;;;;;3.50;1.85;;;28.60;65.10;;;;;;4131829;28;20100;-78
2023/01/27 04:17:17;;;;;;;2.35;1.20;;;28.70;65.10;;;;;;4132608;28;20034;-79
2023/01/27 04:19:40;;;;;;;1.85;1.13;;;28.70;65.00;;;;;;4133463;28;20045;-78
2023/01/27 04:22:09;;;;;;;2.93;1.30;;;28.80;65.00;;;;;;4133365;28;20051;-77
2023/01/27 04:24:32;;;;;;;1.67;1.15;;;28.80;65.10;;;;;;4135105;28;20279;-77
2023/01/27 04:26:59;;;;;;;2.60;1.40;;;28.80;65.00;;;;;;4134195;28;20226;-79
2023/01/27 04:29:30;;;;;;;2.40;1.10;;;28.90;65.00;;;;;;4139792;28;20139;-81
2023/01/27 04:31:52;;;;;;;2.65;1.40;;;28.90;64.80;;;;;;4154601;28;20099;-80
2023/01/27 04:34:15;;;;;;;2.33;0.87;;;29.00;64.90;;;;;;4137121;28;20042;-87
2023/01/27 04:36:41;;;;;;;2.30;1.20;;;29.00;65.00;;;;;;4137749;28;20102;-81
2023/01/27 04:39:04;;;;;;;3.47;1.50;;;29.00;62.40;;;;;;4137071;28;20310;-81
2023/01/27 04:41:29;;;;;;;3.78;1.48;;;28.80;60.30;;;;;;4132803;28;20786;-88
2023/01/27 04:43:51;;;;;;;3.10;1.52;;;28.50;59.50;;;;;;4131393;28;20042;-79
2023/01/27 04:46:16;;;;;;;1.98;1.10;;;28.30;58.80;;;;;;4130701;28;20049;-84
2023/01/27 04:48:39;;;;;;;1.95;1.45;;;28.20;58.70;;;;;;4132413;28;20038;-78
2023/01/27 04:51:01;;;;;;;2.20;1.58;;;28.00;58.50;;;;;;4134058;28;20038;-73
2023/01/27 04:53:24;;;;;;;2.70;1.67;;;27.80;58.50;;;;;;4130416;28;20131;-79
2023/01/27 04:56:06;;;;;;;3.28;1.40;;;27.70;58.70;;;;;;4132900;28;20793;-82
2023/01/27 04:58:29;;;;;;;3.17;1.73;;;27.50;58.90;;;;;;4129215;28;20072;-83
2023/01/27 05:00:51;;;;;;;2.35;1.65;;;27.40;58.70;;;;;;4127407;28;20042;-86
2023/01/27 05:03:14;;;;;;;3.25;2.10;;;27.30;59.00;;;;;;4127934;28;20034;-80
2023/01/27 05:05:37;;;;;;;4.32;2.88;;;27.30;58.70;;;;;;4133869;28;20031;-80
2023/01/27 05:08:05;;;;;;;5.32;4.47;;;27.10;58.90;;;;;;4131311;28;20045;-78
2023/01/27 05:10:30;;;;;;;5.80;5.22;;;27.00;58.80;;;;;;4133832;28;20061;-81
2023/01/27 05:12:52;;;;;;;6.35;5.75;;;27.00;58.90;;;;;;4138758;28;20105;-76
2023/01/27 05:15:15;;;;;;;5.40;4.90;;;26.90;58.70;;;;;;4136351;28;20100;-80
2023/01/27 05:17:37;;;;;;;5.30;4.80;;;26.80;59.10;;;;;;4131323;28;20035;-79
2023/01/27 05:19:59;;;;;;;4.70;4.30;;;26.70;58.90;;;;;;4157935;23;20054;-47
2023/01/27 05:22:22;;;;;;;4.45;3.78;;;26.70;58.90;;;;;;4106004;28;20068;-47
2023/01/27 05:24:44;;;;;;;3.85;3.13;;;26.60;59.20;;;;;;4125287;28;20121;-48
2023/01/27 05:27:07;;;;;;;3.25;2.95;;;26.60;59.20;;;;;;4100389;28;20070;-49
2023/01/27 05:29:29;;;;;;;3.38;2.78;;;26.50;58.60;;;;;;4104131;28;20065;-48
2023/01/27 05:31:52;;;;;;;3.45;2.63;;;26.50;59.00;;;;;;4103002;28;20303;-48
2023/01/27 05:34:15;;;;;;;2.70;2.03;;;26.50;59.10;;;;;;4104957;28;20043;-48
2023/01/27 05:36:38;;;;;;;2.95;2.20;;;26.40;58.40;;;;;;4106769;28;20105;-50
2023/01/27 05:39:00;;;;;;;2.80;1.95;;;26.40;58.50;;;;;;4094673;28;20113;-46
2023/01/27 05:41:23;;;;;;;2.22;1.90;;;26.30;58.20;;;;;;4108195;28;20041;-46
2023/01/27 05:43:47;;;;;;;3.20;2.27;;;26.30;58.30;;;;;;4108805;28;20154;-45
2023/01/27 05:46:17;;;;;;;3.28;1.70;;;26.30;58.30;;;;;;4109682;28;20439;-45
2023/01/27 05:48:46;;;;;;;1.83;1.33;;;26.30;59.10;;;;;;4108183;28;20096;-51
2023/01/27 05:51:09;;;;;;;2.60;1.60;;;26.20;58.50;;;;;;4126119;23;20050;-42
2023/01/27 05:53:32;;;;;;;3.20;1.42;;;26.20;58.60;;;;;;4109819;28;20072;-39
2023/01/27 05:55:54;;;;;;;3.20;1.60;;;26.20;58.50;;;;;;4107857;28;20042;-46
2023/01/27 05:58:17;;;;;;;1.83;1.27;;;26.20;59.40;;;;;;4111532;28;20054;-47
2023/01/27 06:00:39;;;;;;;4.55;1.50;;;26.20;58.80;;;;;;4109825;28;20493;-40
2023/01/27 06:03:02;;;;;;;2.28;1.38;;;26.10;58.70;;;;;;4107770;28;20042;-40
2023/01/27 06:05:24;;;;;;;2.30;1.50;;;26.10;58.50;;;;;;4106703;28;20035;-44
2023/01/27 06:07:58;;;;;;;2.38;1.30;;;26.10;58.40;;;;;;4104914;28;20433;-41
2023/01/27 06:10:24;;;;;;;2.22;1.40;;;26.10;58.40;;;;;;4102912;28;20144;-45
2023/01/27 06:12:46;;;;;;;2.03;1.10;;;26.00;58.40;;;;;;4105297;28;20062;-46
2023/01/27 06:15:12;;;;;;;2.53;1.70;;;26.00;58.50;;;;;;4104426;28;20070;-44
2023/01/27 06:17:35;;;;;;;3.13;1.92;;;26.00;58.60;;;;;;4101180;28;20043;-44
2023/01/27 06:19:57;;;;;;;3.33;1.70;;;26.00;58.70;;;;;;4100375;28;20073;-45
2023/01/27 06:22:22;;;;;;;4.20;2.50;;;26.00;58.80;;;;;;4108537;28;20733;-40
2023/01/27 06:24:44;;;;;;;3.28;1.95;;;25.90;58.90;;;;;;4109044;28;20603;-39
2023/01/27 06:27:07;;;;;;;2.78;1.73;;;26.00;59.10;;;;;;4108360;28;20038;-39
2023/01/27 06:29:29;;;;;;;3.13;2.00;;;25.90;59.00;;;;;;4106411;28;20047;-41
2023/01/27 06:31:52;;;;;;;4.30;1.90;;;25.80;59.10;;;;;;4099993;28;20043;-39
2023/01/27 06:34:14;;;;;;;4.30;2.03;;;25.80;59.40;;;;;;4102896;28;20054;-38
2023/01/27 06:36:36;;;;;;;4.32;2.42;;;25.70;59.40;;;;;;4106019;28;20042;-39
2023/01/27 06:38:59;;;;;;;5.55;3.20;;;25.70;59.80;;;;;;4104249;28;20408;-42
2023/01/27 06:41:21;;;;;;;6.03;4.25;;;25.60;59.90;;;;;;4103810;28;20134;-39
2023/01/27 06:43:43;;;;;;;6.78;5.07;;;25.60;60.00;;;;;;4102089;28;21438;-38
2023/01/27 06:46:06;;;;;;;6.32;5.00;;;25.60;60.00;;;;;;4102002;28;20035;-40
2023/01/27 06:48:32;;;;;;;7.38;5.70;;;25.50;60.00;;;;;;4100242;28;20053;-42
2023/01/27 06:50:55;;;;;;;7.95;6.07;;;25.50;60.10;;;;;;4101880;28;20058;-39
2023/01/27 06:53:17;;;;;;;6.57;5.40;;;25.50;60.30;;;;;;4103008;28;20528;-41
2023/01/27 06:55:43;;;;;;;5.55;4.85;;;25.40;60.10;;;;;;4106903;28;20041;-43
2023/01/27 06:58:07;;;;;;;6.03;4.47;;;25.40;60.20;;;;;;4106063;28;20054;-41
2023/01/27 07:00:29;;;;;;;5.97;5.03;;;25.30;60.10;;;;;;4107468;28;20396;-39
2023/01/27 07:02:55;;;;;;;7.78;5.57;;;25.30;60.00;;;;;;4104918;28;20513;-45
2023/01/27 07:05:17;;;;;;;5.65;4.97;;;25.30;60.10;;;;;;4105937;28;20133;-40
2023/01/27 07:07:40;;;;;;;6.53;5.82;;;25.20;60.10;;;;;;4104934;28;20038;-41
2023/01/27 07:10:02;;;;;;;6.85;5.63;;;25.20;60.20;;;;;;4108157;28;20645;-38
2023/01/27 07:12:25;;;;;;;9.57;6.10;;;25.10;60.20;;;;;;4099124;28;20042;-39
2023/01/27 07:14:47;;;;;;;8.45;7.25;;;25.10;60.30;;;;;;4100353;28;20078;-39
2023/01/27 07:17:10;;;;;;;7.68;6.57;;;25.10;60.40;;;;;;4096993;28;20050;-44
2023/01/27 07:19:32;;;;;;;7.75;6.75;;;25.10;60.50;;;;;;4103250;28;20078;-43
2023/01/27 07:21:54;;;;;;;8.68;7.18;;;25.00;60.40;;;;;;4100223;28;20062;-41
2023/01/27 07:24:18;;;;;;;8.80;7.63;;;25.00;60.60;;;;;;4103291;28;20050;-47
2023/01/27 07:26:40;;;;;;;9.15;8.00;;;24.90;60.40;;;;;;4104252;28;20469;-43
2023/01/27 07:29:03;;;;;;;11.02;8.23;;;24.90;60.50;;;;;;4095089;28;20529;-41
2023/01/27 07:31:25;;;;;;;11.65;8.20;;;24.90;60.30;;;;;;4094832;28;20043;-42
2023/01/27 07:33:47;;;;;;;9.73;8.73;;;24.90;60.40;;;;;;4099343;28;20114;-39
2023/01/27 07:36:10;;;;;;;8.65;7.78;;;24.80;60.30;;;;;;4106348;28;21017;-39
2023/01/27 07:38:32;;;;;;;9.27;8.10;;;24.80;60.40;;;;;;4101334;28;20569;-40
2023/01/27 07:40:58;;;;;;;7.97;7.10;;;24.70;60.70;;;;;;4101054;28;20092;-39
2023/01/27 07:43:23;;;;;;;10.23;6.75;;;24.60;60.80;;;;;;4101378;28;20138;-39
2023/01/27 07:45:47;;;;;;;8.40;6.40;;;24.60;60.80;;;;;;4098235;28;20046;-39
2023/01/27 07:48:11;;;;;;;6.88;5.18;;;24.60;60.70;;;;;;4098013;28;20034;-40
2023/01/27 07:50:34;;;;;;;5.93;4.47;;;24.60;60.80;;;;;;4098281;28;20078;-41
2023/01/27 07:53:02;;;;;;;5.80;4.25;;;24.50;60.70;;;;;;4095924;28;20106;-38
2023/01/27 07:55:24;;;;;;;5.90;3.67;;;24.50;60.70;;;;;;4103127;28;20035;-40
2023/01/27 07:57:46;;;;;;;4.35;3.03;;;24.40;60.40;;;;;;4098538;28;20074;-41
2023/01/27 08:00:14;;;;;;;4.03;2.65;;;24.50;60.70;;;;;;4101595;28;20094;-40
2023/01/27 08:02:36;;;;;;;5.00;2.72;;;24.40;61.00;;;;;;4101175;28;20046;-39
2023/01/27 08:04:58;;;;;;;4.50;2.40;;;24.40;60.90;;;;;;4096830;28;20039;-39
2023/01/27 08:07:24;;;;;;;4.55;2.80;;;24.40;61.10;;;;;;4095825;28;20042;-39
2023/01/27 08:09:47;;;;;;;3.80;2.20;;;24.30;61.20;;;;;;4097877;28;20043;-39
2023/01/27 08:12:09;;;;;;;3.47;1.98;;;24.30;61.00;;;;;;4100094;28;20548;-38
2023/01/27 08:14:35;;;;;;;4.10;2.30;;;24.20;60.80;;;;;;4099049;28;20070;-40
2023/01/27 08:16:57;;;;;;;3.50;2.05;;;24.20;61.10;;;;;;4096715;28;20097;-40
2023/01/27 08:19:19;;;;;;;3.25;2.00;;;24.20;61.00;;;;;;4096919;28;20055;-40
2023/01/27 08:21:42;;;;;;;5.05;1.98;;;24.10;61.00;;;;;;4100546;28;20030;-42
2023/01/27 08:24:04;;;;;;;3.88;1.88;;;24.10;60.90;;;;;;4097693;28;20424;-40
2023/01/27 08:26:27;;;;;;;4.53;1.88;;;24.00;61.00;;;;;;4099067;28;20039;-45
2023/01/27 08:28:51;;;;;;;7.38;2.13;;;24.00;61.20;;;;;;4107080;28;20055;-45
2023/01/27 08:31:16;;;;;;;4.18;1.95;;;24.00;61.20;;;;;;4095867;28;20105;-43
2023/01/27 08:33:39;;;;;;;5.88;1.90;;;24.00;61.00;;;;;;4097230;28;20067;-44
2023/01/27 08:36:05;;;;;;;5.70;2.22;;;23.90;60.80;;;;;;4096479;28;20043;-41
2023/01/27 08:38:27;;;;;;;9.18;2.20;;;23.80;60.90;;;;;;4095586;28;20055;-40
2023/01/27 08:40:50;;;;;;;3.40;1.58;;;23.80;61.00;;;;;;4097636;28;20504;-44
2023/01/27 08:43:15;;;;;;;12.85;2.50;;;23.80;60.90;;;;;;4097915;28;20372;-39
2023/01/27 08:45:38;;;;;;;7.65;2.00;;;23.80;60.70;;;;;;4102927;28;20039;-41
2023/01/27 08:48:01;;;;;;;10.23;1.88;;;23.80;61.00;;;;;;4075890;28;20379;-38
2023/01/27 08:50:23;;;;;;;4.10;1.80;;;23.80;61.00;;;;;;4091262;28;20055;-39
2023/01/27 08:52:46;;;;;;;3.80;1.52;;;23.70;60.80;;;;;;4091620;28;20274;-39
2023/01/27 08:55:08;;;;;;;3.28;1.75;;;23.70;60.70;;;;;;4096069;28;20346;-38
2023/01/27 08:57:31;;;;;;;2.60;1.60;;;23.70;60.60;;;;;;4091410;28;20380;-38
2023/01/27 08:59:53;;;;;;;2.80;1.50;;;23.60;60.60;;;;;;4097058;28;20161;-41
2023/01/27 09:02:16;;;;;;;4.97;1.90;;;23.60;60.50;;;;;;4101393;28;20043;-40
2023/01/27 09:04:42;;;;;;;3.22;1.60;;;23.60;60.80;;;;;;4091895;28;20379;-39
2023/01/27 09:07:04;;;;;;;2.08;1.67;;;23.60;60.60;;;;;;4090598;28;20271;-40
2023/01/27 09:09:27;;;;;;;3.95;1.80;;;23.60;60.60;;;;;;4100468;28;20043;-39
2023/01/27 09:11:49;;;;;;;3.60;1.80;;;23.50;60.50;;;;;;4099516;28;20043;-40
2023/01/27 09:14:12;;;;;;;3.75;1.70;;;23.50;60.60;;;;;;4100051;28;20039;-40
2023/01/27 09:16:35;;;;;;;5.40;1.77;;;23.50;60.40;;;;;;4099957;28;20047;-38
2023/01/27 09:18:57;;;;;;;3.13;1.77;;;23.40;60.70;;;;;;4099409;28;20054;-42
2023/01/27 09:21:20;;;;;;;5.78;1.58;;;23.40;60.60;;;;;;4102636;28;20133;-39
2023/01/27 09:23:43;;;;;;;2.22;1.17;;;23.40;60.60;;;;;;4102181;28;20153;-39
2023/01/27 09:26:05;;;;;;;2.63;1.30;;;23.40;60.90;;;;;;4099608;28;20291;-42
2023/01/27 09:28:28;;;;;;;3.72;1.20;;;23.40;61.40;;;;;;4102189;28;20401;-38
2023/01/27 09:30:57;;;;;;;2.38;1.33;;;23.50;61.70;;;;;;4098412;28;20042;-38
2023/01/27 09:33:19;;;;;;;3.65;1.13;;;23.80;62.00;;;;;;4104142;28;20050;-39
2023/01/27 09:35:47;;;;;;;2.10;1.20;;;24.00;62.30;;;;;;4100375;28;20034;-39
2023/01/27 09:38:16;;;;;;;4.13;1.42;;;24.10;62.40;;;;;;4103285;28;20161;-40
2023/01/27 09:41:17;;;;;;;2.30;1.38;;;24.30;62.70;;;;;;4098022;28;20052;-38
2023/01/27 09:43:58;;;;;;;3.67;1.48;;;24.50;62.80;;;;;;4097860;28;20047;-40
2023/01/27 09:46:46;;;;;;;3.72;1.35;;;24.60;62.80;;;;;;4098192;28;20042;-40
2023/01/27 09:49:40;;;;;;;3.38;1.40;;;24.80;62.70;;;;;;4095091;28;20030;-40
2023/01/27 09:52:26;;;;;;;2.65;1.10;;;24.90;63.20;;;;;;4098926;28;20059;-39
2023/01/27 09:55:19;;;;;;;3.22;1.15;;;25.00;63.90;;;;;;4096336;28;20030;-39
2023/01/27 09:58:02;;;;;;;3.38;1.25;;;25.10;63.50;;;;;;4089238;28;20046;-40
2023/01/27 10:00:56;;;;;;;4.07;1.58;;;25.20;63.70;;;;;;4095235;28;20430;-41
2023/01/27 10:03:27;;;;;;;3.17;1.40;;;25.30;63.80;;;;;;4096917;28;20039;-38
2023/01/27 10:06:22;;;;;;;3.03;1.55;;;25.40;63.90;;;;;;4103162;28;20537;-43
2023/01/27 10:09:02;;;;;;;3.75;1.30;;;25.50;64.20;;;;;;4102952;28;20085;-37
2023/01/27 10:11:39;;;;;;;6.85;2.13;;;25.60;64.20;;;;;;4100092;28;20794;-39
2023/01/27 10:14:07;;;;;;;10.35;2.05;;;25.70;64.40;;;;;;4098471;28;20047;-38
2023/01/27 10:16:36;;;;;;;4.43;1.35;;;25.80;64.70;;;;;;4101391;28;20398;-45
2023/01/27 10:19:06;;;;;;;4.05;1.52;;;25.80;64.70;;;;;;4099418;28;20597;-39
2023/01/27 10:21:46;;;;;;;6.75;1.60;;;25.90;64.70;;;;;;4103663;28;20043;-45
2023/01/27 10:24:19;;;;;;;6.13;1.40;;;25.90;64.80;;;;;;4097928;28;20046;-39
2023/01/27 10:27:19;;;;;;;6.07;2.15;;;26.00;64.90;;;;;;4100857;28;20034;-42
2023/01/27 10:29:50;;;;;;;3.72;1.33;;;26.10;65.10;;;;;;4093624;28;20122;-40
2023/01/27 10:32:32;;;;;;;5.80;1.45;;;26.10;64.90;;;;;;4094498;28;20043;-43
2023/01/27 10:35:16;;;;;;;3.33;1.58;;;26.20;65.10;;;;;;4100675;28;20050;-43
2023/01/27 10:38:02;;;;;;;5.27;2.23;;;26.20;65.20;;;;;;4098304;28;20043;-41
2023/01/27 10:40:47;;;;;;;5.75;1.50;;;26.30;65.20;;;;;;4092005;28;20046;-41
2023/01/27 10:43:38;;;;;;;8.45;2.20;;;26.40;65.40;;;;;;4098911;28;20039;-40
2023/01/27 10:46:31;;;;;;;4.82;2.17;;;26.50;65.50;;;;;;4101582;28;20419;-39
2023/01/27 10:49:25;;;;;;;4.03;1.38;;;26.50;65.60;;;;;;4100573;28;20049;-42
2023/01/27 10:52:27;;;;;;;4.28;1.67;;;26.60;65.40;;;;;;4100612;28;20051;-41
2023/01/27 10:54:53;;;;;;;3.90;1.40;;;26.60;65.40;;;;;;4086467;28;20031;-43
2023/01/27 10:57:24;;;;;;;3.78;1.15;;;26.70;65.60;;;;;;4090384;28;20069;-42
2023/01/27 11:00:35;;;;;;;4.88;1.50;;;26.70;65.60;;;;;;4101079;28;20432;-40
2023/01/27 11:03:20;;;;;;;1.95;1.23;;;26.80;65.70;;;;;;4094277;28;20809;-39
2023/01/27 11:05:48;;;;;;;4.40;1.27;;;26.80;65.70;;;;;;4103201;28;20487;-40
2023/01/27 11:08:21;;;;;;;3.28;1.33;;;26.80;65.80;;;;;;4103782;28;20152;-40
2023/01/27 11:13:29;;;;;;;;;;;26.90;65.90;;;;;;4099658;28;20050;-42
2023/01/27 11:15:52;;;;;;;3.08;1.60;;;26.90;66.00;;;;;;4104251;28;20071;-39
2023/01/27 11:18:30;;;;;;;2.35;1.02;;;27.00;66.00;;;;;;4103024;28;20157;-38
2023/01/27 11:21:22;;;;;;;1.52;0.98;;;27.00;66.00;;;;;;4101516;28;20152;-41
2023/01/27 11:23:54;;;;;;;3.63;1.27;;;27.10;66.10;;;;;;4101400;28;20597;-42
2023/01/27 11:26:48;;;;;;;6.38;1.20;;;27.10;66.10;;;;;;4095421;28;20070;-42
2023/01/27 11:29:20;;;;;;;4.55;1.40;;;27.10;66.20;;;;;;4097235;28;20522;-42
2023/01/27 11:32:03;;;;;;;2.83;1.30;;;27.10;66.00;;;;;;4099825;28;20073;-39
2023/01/27 11:34:41;;;;;;;5.17;1.53;;;27.20;66.30;;;;;;4093204;28;20049;-40
2023/01/27 11:37:19;;;;;;;4.47;2.03;;;27.10;66.40;;;;;;4091425;28;20644;-39
2023/01/27 11:39:42;;;;;;;5.45;1.48;;;27.20;66.30;;;;;;4098380;28;20050;-39
2023/01/27 11:42:05;;;;;;;6.25;1.60;;;27.10;66.40;;;;;;4099761;28;20514;-39
2023/01/27 11:44:34;;;;;;;6.90;1.50;;;27.10;66.60;;;;;;4092413;28;20042;-39
2023/01/27 11:46:57;;;;;;;11.40;2.50;;;27.20;66.70;;;;;;4097709;28;20098;-37
2023/01/27 11:49:36;;;;;;;10.98;2.13;;;27.20;66.70;;;;;;4096973;28;20035;-38
2023/01/27 11:52:10;;;;;;;14.55;2.85;;;27.10;66.80;;;;;;4099517;28;20054;-43
2023/01/27 11:54:51;;;;;;;8.02;1.55;;;27.10;67.00;;;;;;4099649;28;20131;-40
2023/01/27 11:57:22;;;;;;;4.95;1.42;;;27.00;67.00;;;;;;4093986;28;20337;-38
2023/01/27 11:59:46;;;;;;;5.85;1.75;;;27.00;67.10;;;;;;4092891;28;20047;-38
2023/01/27 12:02:35;;;;;;;7.30;1.30;;;27.00;67.20;;;;;;4097430;28;20031;-40
2023/01/27 12:05:20;;;;;;;3.80;1.25;;;27.00;67.30;;;;;;4098233;28;20109;-42
2023/01/27 12:07:51;;;;;;;3.67;1.17;;;27.00;67.30;;;;;;4094045;28;20043;-39
2023/01/27 12:10:28;;;;;;;8.15;1.55;;;27.00;67.30;;;;;;4093163;28;20070;-38
2023/01/27 12:12:52;;;;;;;5.97;1.27;;;27.00;67.40;;;;;;4093112;28;20039;-39
2023/01/27 12:15:18;;;;;;;10.27;1.35;;;27.00;67.30;;;;;;4097177;28;20129;-38
2023/01/27 12:17:45;;;;;;;3.67;1.30;;;27.00;68.00;;;;;;4096438;28;20045;-38
2023/01/27 12:20:30;;;;;;;6.57;1.48;;;27.10;67.50;;;;;;4105135;28;20052;-38
2023/01/27 12:22:57;;;;;;;8.02;1.80;;;27.10;67.40;;;;;;4093399;28;20554;-40
2023/01/27 12:25:29;;;;;;;3.90;1.00;;;27.10;67.80;;;;;;4084537;28;20044;-37
2023/01/27 12:27:58;;;;;;;2.78;0.93;;;27.10;67.50;;;;;;4098589;28;20404;-38
2023/01/27 12:30:29;;;;;;;8.05;2.20;;;27.20;67.50;;;;;;4099758;28;20050;-38
2023/01/27 12:32:53;;;;;;;2.35;1.15;;;27.20;67.50;;;;;;4087380;28;20066;-38
2023/01/27 12:35:17;;;;;;;;;;;27.20;67.50;;;;;;4100078;28;20077;-37
2023/01/27 12:37:40;;;;;;;5.20;1.17;;;27.20;67.50;;;;;;4103422;28;20074;-37
2023/01/27 12:40:05;;;;;;;2.75;1.17;;;27.20;67.40;;;;;;4101115;28;20109;-37
2023/01/27 12:42:41;;;;;;;5.28;1.00;;;27.20;67.50;;;;;;4099706;28;20043;-37
2023/01/27 12:45:29;;;;;;;3.53;0.93;;;27.30;67.60;;;;;;4101052;28;20065;-37
2023/01/27 12:48:08;;;;;;;3.88;0.90;;;27.30;67.50;;;;;;4095856;28;20039;-38
2023/01/27 12:50:35;;;;;;;7.07;1.00;;;27.30;67.50;;;;;;4086419;28;20142;-36
2023/01/27 12:53:22;;;;;;;6.22;1.00;;;27.30;67.60;;;;;;4103026;28;20439;-39
2023/01/27 12:55:59;;;;;;;6.28;0.98;;;27.30;67.50;;;;;;4099772;28;20040;-39
2023/01/27 12:58:40;;;;;;;1.98;0.80;;;27.30;67.50;;;;;;4098938;28;20054;-39
2023/01/27 13:01:22;;;;;;;4.32;1.58;;;27.30;67.50;;;;;;4102874;28;20043;-36
2023/01/27 13:03:45;;;;;;;4.30;0.95;;;27.30;67.50;;;;;;4101672;28;20039;-36
2023/01/27 13:06:08;;;;;;;1.37;0.80;;;27.30;67.60;;;;;;4101513;28;20054;-37
2023/01/27 13:08:40;;;;;;;6.75;1.40;;;27.30;67.60;;;;;;4103599;28;20668;-37
2023/01/27 13:11:04;;;;;;;2.03;0.80;;;27.30;67.50;;;;;;4104453;28;20239;-39
2023/01/27 13:13:28;;;;;;;2.45;0.82;;;27.40;67.60;;;;;;4105623;28;20204;-38
2023/01/27 13:16:02;;;;;;;2.40;0.90;;;27.40;67.60;;;;;;4092325;28;20507;-38
2023/01/27 13:18:24;;;;;;;1.80;0.82;;;27.40;67.70;;;;;;4098071;28;20501;-37
2023/01/27 13:21:23;;;;;;;2.47;0.80;;;27.40;67.60;;;;;;4101342;28;20031;-39
2023/01/27 13:23:47;;;;;;;2.70;0.90;;;27.40;67.50;;;;;;4100077;28;20081;-38
2023/01/27 13:26:13;;;;;;;2.47;1.05;;;27.40;67.60;;;;;;4101741;28;20502;-38
2023/01/27 13:28:57;;;;;;;3.13;0.80;;;27.50;67.70;;;;;;4101279;28;20050;-39